This is the latest recevied weather packets stored in our database for station/object KC3UTO. If no packets are shown the sender has not sent any weather packets the latest 10 day(s).
| Time | Temp. | Humidity | Pressure | Rain* | Wind** | Luminosity | Snow |
|---|---|---|---|---|---|---|---|
| 1777726200 | 9.44° C | 64% | 1012.8 hPa | 0 mm | - | 178 W/m² | - |
| 1777725897 | 8.89° C | 65% | 1012.4 hPa | 0 mm | - | 465 W/m² | - |
| 1777725594 | 8.89° C | 67% | 1013 hPa | 0 mm | - | 142 W/m² | - |
| 1777725291 | 8.89° C | 67% | 1012.7 hPa | 0 mm | - | 174 W/m² | - |
| 1777724988 | 8.89° C | 68% | 1012.7 hPa | 0 mm | - | 202 W/m² | - |
| 1777724684 | 8.33° C | 69% | 1012.7 hPa | 0 mm | - | 187 W/m² | - |
| 1777724383 | 8.33° C | 72% | 1012.5 hPa | 0 mm | - | 157 W/m² | - |
| 1777724080 | 8.33° C | 73% | 1012.6 hPa | 0 mm | - | 161 W/m² | - |
| 1777723777 | 8.33° C | 73% | 1012.5 hPa | 0 mm | - | 179 W/m² | - |
| 1777723473 | 8.33° C | 73% | 1012.4 hPa | 0 mm | - | 146 W/m² | - |
| 1777723171 | 8.33° C | 73% | 1012.5 hPa | 0 mm | - | 146 W/m² | - |
| 1777722868 | 8.33° C | 74% | 1012.4 hPa | 0 mm | - | 125 W/m² | - |
| 1777722564 | 8.33° C | 75% | 1012.2 hPa | 0 mm | - | 103 W/m² | - |
| 1777722261 | 8.33° C | 75% | 1012.2 hPa | 0 mm | - | 91 W/m² | - |
| 1777721958 | 8.33° C | 75% | 1012.1 hPa | 0 mm | - | 98 W/m² | - |
| 1777721655 | 8.33° C | 77% | 1012.2 hPa | 0 mm | - | 82 W/m² | - |
| 1777721354 | 8.33° C | 78% | 1012 hPa | 0 mm | - | 70 W/m² | - |
| 1777721051 | 8.33° C | 80% | 1012.3 hPa | 0 mm | - | 65 W/m² | - |
| 1777720748 | 8.89° C | 80% | 1012.2 hPa | 0 mm | - | 55 W/m² | - |
| 1777720445 | 8.89° C | 81% | 1011.9 hPa | 0 mm | - | 60 W/m² | - |
| 1777720143 | 8.89° C | 83% | 1011.8 hPa | 0 mm | - | 57 W/m² | - |
| 1777719841 | 8.89° C | 85% | 1011.7 hPa | 0 mm | - | 52 W/m² | - |
| 1777719538 | 8.89° C | 87% | 1011.7 hPa | 0 mm | - | 48 W/m² | - |
| 1777719235 | 8.89° C | 88% | 1011.6 hPa | 0 mm | - | 47 W/m² | - |
| 1777718933 | 8.89° C | 89% | 1011.6 hPa | 0 mm | - | 46 W/m² | - |
* Rain latest hour (hover to see other rain measurements)
** Current wind speed in m/s (hover to see current wind gust speed)